sensor_id;sensor_type;location;lat;lon;timestamp;pressure;altitude;pressure_sealevel;temperature;humidity
16120;BME280;12670;53.502;10.252;2023-04-01T00:00:50;99187.34;;;11.63;100.00
16120;BME280;12670;53.502;10.252;2023-04-01T00:03:53;99191.38;;;11.68;100.00
16120;BME280;12670;53.502;10.252;2023-04-01T00:06:57;99195.06;;;11.66;100.00
16120;BME280;12670;53.502;10.252;2023-04-01T00:10:00;99194.16;;;11.67;100.00
16120;BME280;12670;53.502;10.252;2023-04-01T00:13:03;99194.06;;;11.56;100.00
16120;BME280;12670;53.502;10.252;2023-04-01T00:16:08;99193.38;;;11.65;100.00
16120;BME280;12670;53.502;10.252;2023-04-01T00:19:22;99189.91;;;11.52;100.00
16120;BME280;12670;53.502;10.252;2023-04-01T00:22:25;99202.13;;;11.41;100.00
16120;BME280;12670;53.502;10.252;2023-04-01T00:25:28;99190.09;;;11.48;100.00
16120;BME280;12670;53.502;10.252;2023-04-01T00:28:33;99198.31;;;11.45;100.00
16120;BME280;12670;53.502;10.252;2023-04-01T00:31:38;99192.44;;;11.53;100.00
16120;BME280;12670;53.502;10.252;2023-04-01T00:34:41;99205.84;;;11.52;100.00
16120;BME280;12670;53.502;10.252;2023-04-01T00:37:45;99193.19;;;11.42;100.00
16120;BME280;12670;53.502;10.252;2023-04-01T00:40:48;99190.09;;;11.48;100.00
16120;BME280;12670;53.502;10.252;2023-04-01T00:43:52;99192.88;;;11.47;100.00
16120;BME280;12670;53.502;10.252;2023-04-01T00:46:56;99197.34;;;11.46;100.00
16120;BME280;12670;53.502;10.252;2023-04-01T00:49:59;99196.91;;;11.40;100.00
16120;BME280;12670;53.502;10.252;2023-04-01T00:53:02;99194.16;;;11.41;100.00
16120;BME280;12670;53.502;10.252;2023-04-01T00:56:10;99195.53;;;11.34;100.00
16120;BME280;12670;53.502;10.252;2023-04-01T00:59:16;99196.50;;;11.33;100.00
16120;BME280;12670;53.502;10.252;2023-04-01T01:02:22;99199.88;;;11.35;100.00
16120;BME280;12670;53.502;10.252;2023-04-01T01:05:37;99200.97;;;11.33;100.00
16120;BME280;12670;53.502;10.252;2023-04-01T01:09:03;99203.69;;;11.31;100.00
16120;BME280;12670;53.502;10.252;2023-04-01T01:12:13;99205.19;;;11.23;100.00
16120;BME280;12670;53.502;10.252;2023-04-01T01:15:20;99209.00;;;11.31;100.00
16120;BME280;12670;53.502;10.252;2023-04-01T01:18:33;99199.88;;;11.23;100.00
16120;BME280;12670;53.502;10.252;2023-04-01T01:21:55;99198.41;;;11.31;100.00
16120;BME280;12670;53.502;10.252;2023-04-01T01:25:17;99204.13;;;11.25;100.00
16120;BME280;12670;53.502;10.252;2023-04-01T01:28:35;99196.06;;;11.14;100.00
16120;BME280;12670;53.502;10.252;2023-04-01T01:31:48;99195.84;;;11.17;100.00
16120;BME280;12670;53.502;10.252;2023-04-01T01:38:05;99206.47;;;11.17;100.00
16120;BME280;12670;53.502;10.252;2023-04-01T01:41:09;99200.50;;;11.13;100.00
16120;BME280;12670;53.502;10.252;2023-04-01T01:44:15;99202.53;;;11.10;100.00
16120;BME280;12670;53.502;10.252;2023-04-01T01:47:19;99206.88;;;11.11;100.00
16120;BME280;12670;53.502;10.252;2023-04-01T01:50:24;99209.22;;;11.03;100.00
16120;BME280;12670;53.502;10.252;2023-04-01T01:53:29;99204.66;;;11.05;100.00
16120;BME280;12670;53.502;10.252;2023-04-01T01:56:32;99208.81;;;11.09;100.00
16120;BME280;12670;53.502;10.252;2023-04-01T01:59:38;99210.50;;;11.10;100.00
16120;BME280;12670;53.502;10.252;2023-04-01T02:02:42;99207.09;;;11.08;100.00
16120;BME280;12670;53.502;10.252;2023-04-01T02:05:47;99212.41;;;11.08;100.00
16120;BME280;12670;53.502;10.252;2023-04-01T02:08:54;99211.25;;;11.12;100.00
16120;BME280;12670;53.502;10.252;2023-04-01T02:12:00;99219.44;;;11.09;100.00
16120;BME280;12670;53.502;10.252;2023-04-01T02:15:08;99221.53;;;11.04;100.00
16120;BME280;12670;53.502;10.252;2023-04-01T02:18:13;99211.53;;;11.07;100.00
16120;BME280;12670;53.502;10.252;2023-04-01T02:21:17;99212.41;;;11.08;100.00
16120;BME280;12670;53.502;10.252;2023-04-01T02:24:23;99213.69;;;11.15;100.00
16120;BME280;12670;53.502;10.252;2023-04-01T02:27:28;99219.19;;;11.12;100.00
16120;BME280;12670;53.502;10.252;2023-04-01T02:30:32;99215.59;;;11.13;100.00
16120;BME280;12670;53.502;10.252;2023-04-01T02:33:36;99223.97;;;11.07;100.00
16120;BME280;12670;53.502;10.252;2023-04-01T02:36:40;99227.72;;;11.17;100.00
16120;BME280;12670;53.502;10.252;2023-04-01T02:39:44;99227.16;;;11.12;100.00
16120;BME280;12670;53.502;10.252;2023-04-01T02:42:47;99217.09;;;11.17;100.00
16120;BME280;12670;53.502;10.252;2023-04-01T02:45:49;99227.59;;;11.18;100.00
16120;BME280;12670;53.502;10.252;2023-04-01T02:48:52;99223.91;;;11.21;100.00
16120;BME280;12670;53.502;10.252;2023-04-01T02:51:56;99235.13;;;11.12;100.00
16120;BME280;12670;53.502;10.252;2023-04-01T02:55:00;99238.09;;;11.07;100.00
16120;BME280;12670;53.502;10.252;2023-04-01T02:58:02;99243.38;;;11.07;100.00
16120;BME280;12670;53.502;10.252;2023-04-01T03:01:05;99246.78;;;10.97;100.00
16120;BME280;12670;53.502;10.252;2023-04-01T03:04:09;99241.25;;;11.00;100.00
16120;BME280;12670;53.502;10.252;2023-04-01T03:07:12;99251.03;;;10.99;100.00
16120;BME280;12670;53.502;10.252;2023-04-01T03:10:16;99246.88;;;11.08;100.00
16120;BME280;12670;53.502;10.252;2023-04-01T03:13:19;99248.50;;;10.98;100.00
16120;BME280;12670;53.502;10.252;2023-04-01T03:16:22;99252.97;;;11.10;100.00
16120;BME280;12670;53.502;10.252;2023-04-01T03:19:24;99245.97;;;11.09;100.00
16120;BME280;12670;53.502;10.252;2023-04-01T03:22:27;99252.19;;;11.08;100.00
16120;BME280;12670;53.502;10.252;2023-04-01T03:25:31;99251.69;;;11.03;100.00
16120;BME280;12670;53.502;10.252;2023-04-01T03:28:35;99248.91;;;11.04;100.00
16120;BME280;12670;53.502;10.252;2023-04-01T03:31:37;99244.75;;;11.00;100.00
16120;BME280;12670;53.502;10.252;2023-04-01T03:34:40;99257.19;;;11.00;100.00
16120;BME280;12670;53.502;10.252;2023-04-01T03:37:43;99248.91;;;10.91;100.00
16120;BME280;12670;53.502;10.252;2023-04-01T03:40:47;99255.50;;;10.99;100.00
16120;BME280;12670;53.502;10.252;2023-04-01T03:43:49;99255.28;;;11.02;100.00
16120;BME280;12670;53.502;10.252;2023-04-01T03:46:52;99261.00;;;10.95;100.00
16120;BME280;12670;53.502;10.252;2023-04-01T03:49:55;99255.50;;;10.99;100.00
16120;BME280;12670;53.502;10.252;2023-04-01T03:52:57;99263.56;;;10.97;100.00
16120;BME280;12670;53.502;10.252;2023-04-01T03:56:05;99269.91;;;10.94;100.00
16120;BME280;12670;53.502;10.252;2023-04-01T03:59:07;99265.56;;;10.93;100.00
16120;BME280;12670;53.502;10.252;2023-04-01T04:02:10;99268.50;;;10.89;100.00
16120;BME280;12670;53.502;10.252;2023-04-01T04:05:13;99277.31;;;10.89;100.00
16120;BME280;12670;53.502;10.252;2023-04-01T04:08:16;99272.38;;;10.98;100.00
16120;BME280;12670;53.502;10.252;2023-04-01T04:11:21;99278.41;;;11.00;100.00
16120;BME280;12670;53.502;10.252;2023-04-01T04:14:24;99276.72;;;10.99;100.00
16120;BME280;12670;53.502;10.252;2023-04-01T04:17:27;99278.09;;;10.91;100.00
16120;BME280;12670;53.502;10.252;2023-04-01T04:20:30;99277.34;;;11.02;100.00
16120;BME280;12670;53.502;10.252;2023-04-01T04:23:33;99284.13;;;10.93;100.00
16120;BME280;12670;53.502;10.252;2023-04-01T04:26:37;99289.44;;;10.93;100.00
16120;BME280;12670;53.502;10.252;2023-04-01T04:29:40;99286.69;;;10.95;100.00
16120;BME280;12670;53.502;10.252;2023-04-01T04:32:42;99293.47;;;10.86;100.00
16120;BME280;12670;53.502;10.252;2023-04-01T04:35:45;99288.03;;;10.88;100.00
16120;BME280;12670;53.502;10.252;2023-04-01T04:38:48;99296.66;;;10.91;100.00
16120;BME280;12670;53.502;10.252;2023-04-01T04:41:52;99298.09;;;10.83;100.00
16120;BME280;12670;53.502;10.252;2023-04-01T04:44:54;99302.78;;;10.79;100.00
16120;BME280;12670;53.502;10.252;2023-04-01T04:47:57;99307.00;;;10.82;100.00
16120;BME280;12670;53.502;10.252;2023-04-01T04:51:00;99300.34;;;10.89;100.00
16120;BME280;12670;53.502;10.252;2023-04-01T04:54:03;99308.41;;;10.87;100.00
16120;BME280;12670;53.502;10.252;2023-04-01T04:57:08;99311.88;;;10.75;100.00
16120;BME280;12670;53.502;10.252;2023-04-01T05:00:11;99322.59;;;10.74;100.00
16120;BME280;12670;53.502;10.252;2023-04-01T05:03:14;99321.34;;;10.79;100.00
16120;BME280;12670;53.502;10.252;2023-04-01T05:06:17;99326.97;;;10.87;100.00
16120;BME280;12670;53.502;10.252;2023-04-01T05:09:23;99328.25;;;10.82;100.00
16120;BME280;12670;53.502;10.252;2023-04-01T05:12:27;99334.38;;;10.82;100.00
16120;BME280;12670;53.502;10.252;2023-04-01T05:15:30;99330.03;;;10.81;100.00
16120;BME280;12670;53.502;10.252;2023-04-01T05:18:33;99337.38;;;10.90;100.00
16120;BME280;12670;53.502;10.252;2023-04-01T05:21:36;99337.03;;;10.82;100.00
16120;BME280;12670;53.502;10.252;2023-04-01T05:24:38;99341.94;;;10.88;100.00
16120;BME280;12670;53.502;10.252;2023-04-01T05:27:42;99344.31;;;10.93;100.00
16120;BME280;12670;53.502;10.252;2023-04-01T05:30:45;99343.97;;;10.85;100.00
16120;BME280;12670;53.502;10.252;2023-04-01T05:33:48;99350.66;;;10.90;100.00
16120;BME280;12670;53.502;10.252;2023-04-01T05:36:51;99358.09;;;10.85;100.00
16120;BME280;12670;53.502;10.252;2023-04-01T05:39:53;99356.97;;;10.61;100.00
16120;BME280;12670;53.502;10.252;2023-04-01T05:42:58;99361.00;;;10.39;100.00
16120;BME280;12670;53.502;10.252;2023-04-01T05:46:01;99372.81;;;10.20;100.00
16120;BME280;12670;53.502;10.252;2023-04-01T05:49:03;99379.91;;;10.05;100.00
16120;BME280;12670;53.502;10.252;2023-04-01T05:52:07;99376.16;;;10.09;100.00
16120;BME280;12670;53.502;10.252;2023-04-01T05:55:10;99384.81;;;9.82;100.00
16120;BME280;12670;53.502;10.252;2023-04-01T05:58:14;99388.34;;;9.53;100.00
16120;BME280;12670;53.502;10.252;2023-04-01T06:01:17;99395.78;;;9.76;100.00
16120;BME280;12670;53.502;10.252;2023-04-01T06:04:20;99400.84;;;9.65;100.00
16120;BME280;12670;53.502;10.252;2023-04-01T06:07:23;99405.91;;;9.40;100.00
16120;BME280;12670;53.502;10.252;2023-04-01T06:10:38;99404.78;;;9.74;100.00
16120;BME280;12670;53.502;10.252;2023-04-01T06:14:02;99416.00;;;9.63;100.00
16120;BME280;12670;53.502;10.252;2023-04-01T06:17:19;99415.91;;;9.34;100.00
16120;BME280;12670;53.502;10.252;2023-04-01T06:20:32;99415.19;;;9.47;100.00
16120;BME280;12670;53.502;10.252;2023-04-01T06:23:52;99431.50;;;9.39;100.00
16120;BME280;12670;53.502;10.252;2023-04-01T06:27:09;99427.00;;;9.25;100.00
16120;BME280;12670;53.502;10.252;2023-04-01T06:30:40;99427.03;;;8.94;100.00
16120;BME280;12670;53.502;10.252;2023-04-01T06:33:52;99434.91;;;8.79;100.00
16120;BME280;12670;53.502;10.252;2023-04-01T06:37:13;99433.75;;;8.84;100.00
16120;BME280;12670;53.502;10.252;2023-04-01T06:40:35;99443.41;;;8.69;100.00
16120;BME280;12670;53.502;10.252;2023-04-01T06:43:49;99448.19;;;8.62;100.00
16120;BME280;12670;53.502;10.252;2023-04-01T06:46:59;99453.66;;;8.75;100.00
16120;BME280;12670;53.502;10.252;2023-04-01T06:50:11;99457.22;;;8.90;100.00
16120;BME280;12670;53.502;10.252;2023-04-01T06:53:23;99461.97;;;8.67;100.00
16120;BME280;12670;53.502;10.252;2023-04-01T06:56:28;99465.22;;;8.72;100.00
16120;BME280;12670;53.502;10.252;2023-04-01T06:59:33;99470.28;;;8.44;100.00
16120;BME280;12670;53.502;10.252;2023-04-01T07:02:41;99481.44;;;8.66;100.00
16120;BME280;12670;53.502;10.252;2023-04-01T07:05:45;99480.59;;;8.81;100.00
16120;BME280;12670;53.502;10.252;2023-04-01T07:08:49;99491.53;;;8.75;100.00
16120;BME280;12670;53.502;10.252;2023-04-01T07:11:58;99496.00;;;8.73;100.00
16120;BME280;12670;53.502;10.252;2023-04-01T07:15:09;99491.84;;;8.69;100.00
16120;BME280;12670;53.502;10.252;2023-04-01T07:18:19;99506.16;;;8.65;100.00
16120;BME280;12670;53.502;10.252;2023-04-01T07:21:29;99509.25;;;8.73;100.00
16120;BME280;12670;53.502;10.252;2023-04-01T07:24:36;99514.22;;;8.79;100.00
16120;BME280;12670;53.502;10.252;2023-04-01T07:27:40;99516.00;;;8.46;100.00
16120;BME280;12670;53.502;10.252;2023-04-01T07:30:50;99527.81;;;8.56;100.00
16120;BME280;12670;53.502;10.252;2023-04-01T07:34:02;99527.19;;;8.34;100.00
16120;BME280;12670;53.502;10.252;2023-04-01T07:37:12;99531.88;;;8.46;100.00
16120;BME280;12670;53.502;10.252;2023-04-01T07:40:23;99540.25;;;8.37;100.00
16120;BME280;12670;53.502;10.252;2023-04-01T07:43:39;99536.06;;;8.33;100.00
16120;BME280;12670;53.502;10.252;2023-04-01T07:47:06;99546.63;;;8.33;100.00
16120;BME280;12670;53.502;10.252;2023-04-01T07:50:19;99547.03;;;8.42;100.00
16120;BME280;12670;53.502;10.252;2023-04-01T07:53:32;99547.19;;;8.22;100.00
16120;BME280;12670;53.502;10.252;2023-04-01T07:56:42;99550.91;;;8.18;100.00
16120;BME280;12670;53.502;10.252;2023-04-01T07:59:57;99570.31;;;8.17;100.00
16120;BME280;12670;53.502;10.252;2023-04-01T08:03:15;99568.94;;;8.27;100.00
16120;BME280;12670;53.502;10.252;2023-04-01T08:06:26;99575.22;;;8.24;100.00
16120;BME280;12670;53.502;10.252;2023-04-01T08:09:39;99583.22;;;8.23;100.00
16120;BME280;12670;53.502;10.252;2023-04-01T08:12:53;99600.25;;;8.35;100.00
16120;BME280;12670;53.502;10.252;2023-04-01T08:16:07;99585.94;;;8.21;100.00
16120;BME280;12670;53.502;10.252;2023-04-01T08:19:21;99599.34;;;8.36;100.00
16120;BME280;12670;53.502;10.252;2023-04-01T08:22:33;99601.84;;;8.56;100.00
16120;BME280;12670;53.502;10.252;2023-04-01T08:25:41;99606.63;;;8.31;100.00
16120;BME280;12670;53.502;10.252;2023-04-01T08:28:51;99618.13;;;8.29;100.00
16120;BME280;12670;53.502;10.252;2023-04-01T08:31:59;99620.97;;;8.25;100.00
16120;BME280;12670;53.502;10.252;2023-04-01T08:35:11;99626.75;;;7.97;100.00
16120;BME280;12670;53.502;10.252;2023-04-01T08:38:21;99630.25;;;8.16;100.00
16120;BME280;12670;53.502;10.252;2023-04-01T08:41:40;99621.47;;;7.97;100.00
16120;BME280;12670;53.502;10.252;2023-04-01T08:45:01;99629.56;;;7.94;100.00
16120;BME280;12670;53.502;10.252;2023-04-01T08:48:27;99635.34;;;8.19;100.00
16120;BME280;12670;53.502;10.252;2023-04-01T08:51:48;99645.78;;;8.22;100.00
16120;BME280;12670;53.502;10.252;2023-04-01T08:55:22;99646.31;;;8.29;100.00
16120;BME280;12670;53.502;10.252;2023-04-01T08:58:58;99646.03;;;8.35;100.00
16120;BME280;12670;53.502;10.252;2023-04-01T09:02:23;99652.91;;;8.39;100.00
16120;BME280;12670;53.502;10.252;2023-04-01T09:09:53;99662.06;;;8.13;100.00
16120;BME280;12670;53.502;10.252;2023-04-01T09:13:13;99672.75;;;7.93;100.00
16120;BME280;12670;53.502;10.252;2023-04-01T09:16:23;99666.97;;;7.85;100.00
16120;BME280;12670;53.502;10.252;2023-04-01T09:19:44;99673.81;;;7.89;100.00
16120;BME280;12670;53.502;10.252;2023-04-01T09:23:08;99693.66;;;7.79;100.00
16120;BME280;12670;53.502;10.252;2023-04-01T09:26:25;99688.22;;;8.00;100.00
16120;BME280;12670;53.502;10.252;2023-04-01T09:37:18;99690.03;;;8.00;100.00
16120;BME280;12670;53.502;10.252;2023-04-01T09:40:26;99709.63;;;8.13;100.00
16120;BME280;12670;53.502;10.252;2023-04-01T09:43:44;99711.91;;;8.02;100.00
16120;BME280;12670;53.502;10.252;2023-04-01T09:47:03;99716.63;;;8.14;100.00
16120;BME280;12670;53.502;10.252;2023-04-01T09:50:29;99720.09;;;8.15;100.00
16120;BME280;12670;53.502;10.252;2023-04-01T09:53:48;99726.28;;;8.15;100.00
16120;BME280;12670;53.502;10.252;2023-04-01T09:57:13;99726.59;;;8.45;100.00
16120;BME280;12670;53.502;10.252;2023-04-01T10:00:37;99729.78;;;8.52;100.00
16120;BME280;12670;53.502;10.252;2023-04-01T10:04:00;99739.16;;;8.76;100.00
16120;BME280;12670;53.502;10.252;2023-04-01T10:07:45;99742.22;;;8.50;100.00
16120;BME280;12670;53.502;10.252;2023-04-01T10:11:20;99739.53;;;8.51;100.00
16120;BME280;12670;53.502;10.252;2023-04-01T10:14:57;99745.88;;;8.28;100.00
16120;BME280;12670;53.502;10.252;2023-04-01T10:22:06;99765.88;;;8.34;100.00
16120;BME280;12670;53.502;10.252;2023-04-01T10:25:32;99761.91;;;8.44;100.00
16120;BME280;12670;53.502;10.252;2023-04-01T10:32:49;99764.28;;;8.49;100.00
16120;BME280;12670;53.502;10.252;2023-04-01T10:40:14;99772.56;;;8.60;100.00
16120;BME280;12670;53.502;10.252;2023-04-01T10:43:57;99772.75;;;8.74;100.00
16120;BME280;12670;53.502;10.252;2023-04-01T10:47:48;99791.88;;;8.62;100.00
16120;BME280;12670;53.502;10.252;2023-04-01T10:51:05;99800.09;;;8.73;100.00
16120;BME280;12670;53.502;10.252;2023-04-01T10:54:25;99795.72;;;8.55;100.00
16120;BME280;12670;53.502;10.252;2023-04-01T10:57:53;99804.28;;;8.60;100.00
16120;BME280;12670;53.502;10.252;2023-04-01T11:01:36;99801.31;;;8.49;100.00
16120;BME280;12670;53.502;10.252;2023-04-01T11:05:05;99806.47;;;8.52;100.00
16120;BME280;12670;53.502;10.252;2023-04-01T11:08:48;99812.84;;;8.65;100.00
16120;BME280;12670;53.502;10.252;2023-04-01T11:12:14;99817.72;;;8.74;100.00
16120;BME280;12670;53.502;10.252;2023-04-01T11:15:45;99825.91;;;8.51;100.00
16120;BME280;12670;53.502;10.252;2023-04-01T11:19:18;99824.16;;;8.50;100.00
16120;BME280;12670;53.502;10.252;2023-04-01T11:22:43;99836.00;;;8.60;100.00
16120;BME280;12670;53.502;10.252;2023-04-01T11:25:56;99840.09;;;8.29;100.00
16120;BME280;12670;53.502;10.252;2023-04-01T11:33:03;99849.16;;;8.43;100.00
16120;BME280;12670;53.502;10.252;2023-04-01T11:36:38;99858.19;;;8.39;100.00
16120;BME280;12670;53.502;10.252;2023-04-01T11:40:02;99862.56;;;8.40;100.00
16120;BME280;12670;53.502;10.252;2023-04-01T11:43:12;99863.09;;;8.27;100.00
16120;BME280;12670;53.502;10.252;2023-04-01T11:46:39;99869.44;;;8.23;100.00
16120;BME280;12670;53.502;10.252;2023-04-01T11:49:59;99874.81;;;8.01;100.00
16120;BME280;12670;53.502;10.252;2023-04-01T11:53:13;99878.56;;;8.16;100.00
16120;BME280;12670;53.502;10.252;2023-04-01T11:56:47;99891.78;;;8.16;100.00
16120;BME280;12670;53.502;10.252;2023-04-01T12:00:11;99894.81;;;8.07;100.00
16120;BME280;12670;53.502;10.252;2023-04-01T12:03:30;99899.06;;;8.11;100.00
16120;BME280;12670;53.502;10.252;2023-04-01T12:06:44;99905.66;;;8.01;100.00
16120;BME280;12670;53.502;10.252;2023-04-01T12:09:58;99897.75;;;8.01;100.00
16120;BME280;12670;53.502;10.252;2023-04-01T12:13:10;99908.56;;;8.15;100.00
16120;BME280;12670;53.502;10.252;2023-04-01T12:16:28;99917.72;;;8.27;100.00
16120;BME280;12670;53.502;10.252;2023-04-01T12:19:40;99920.53;;;8.43;100.00
16120;BME280;12670;53.502;10.252;2023-04-01T12:22:55;99919.84;;;8.39;100.00
16120;BME280;12670;53.502;10.252;2023-04-01T12:29:46;99935.47;;;8.05;100.00
16120;BME280;12670;53.502;10.252;2023-04-01T12:33:03;99946.69;;;8.10;100.00
16120;BME280;12670;53.502;10.252;2023-04-01T12:36:17;99947.38;;;8.13;100.00
16120;BME280;12670;53.502;10.252;2023-04-01T12:39:47;99946.03;;;7.84;100.00
16120;BME280;12670;53.502;10.252;2023-04-01T12:43:02;99956.13;;;7.74;100.00
16120;BME280;12670;53.502;10.252;2023-04-01T12:46:13;99965.84;;;7.74;100.00
16120;BME280;12670;53.502;10.252;2023-04-01T12:49:31;99971.97;;;7.74;100.00
16120;BME280;12670;53.502;10.252;2023-04-01T12:52:46;99970.91;;;7.79;100.00
16120;BME280;12670;53.502;10.252;2023-04-01T12:55:55;99965.22;;;7.67;100.00
16120;BME280;12670;53.502;10.252;2023-04-01T12:59:23;99976.91;;;7.62;100.00
16120;BME280;12670;53.502;10.252;2023-04-01T13:02:39;99980.66;;;7.56;100.00
16120;BME280;12670;53.502;10.252;2023-04-01T13:09:32;99996.91;;;7.67;100.00
16120;BME280;12670;53.502;10.252;2023-04-01T13:13:08;100010.47;;;7.80;100.00
16120;BME280;12670;53.502;10.252;2023-04-01T13:16:19;100008.00;;;7.75;100.00
16120;BME280;12670;53.502;10.252;2023-04-01T13:19:29;100020.22;;;7.78;100.00
16120;BME280;12670;53.502;10.252;2023-04-01T13:22:48;100020.28;;;7.97;100.00
16120;BME280;12670;53.502;10.252;2023-04-01T13:26:00;100038.00;;;7.74;100.00
16120;BME280;12670;53.502;10.252;2023-04-01T13:29:19;100032.81;;;7.71;100.00
16120;BME280;12670;53.502;10.252;2023-04-01T13:32:30;100034.06;;;7.63;100.00
16120;BME280;12670;53.502;10.252;2023-04-01T13:35:48;100039.81;;;7.72;100.00
16120;BME280;12670;53.502;10.252;2023-04-01T13:39:09;100047.88;;;7.69;100.00
16120;BME280;12670;53.502;10.252;2023-04-01T13:42:22;100049.16;;;7.59;100.00
16120;BME280;12670;53.502;10.252;2023-04-01T13:45:35;100050.94;;;7.37;100.00
16120;BME280;12670;53.502;10.252;2023-04-01T13:48:56;100062.97;;;7.66;100.00
16120;BME280;12670;53.502;10.252;2023-04-01T13:52:15;100062.84;;;7.69;100.00
16120;BME280;12670;53.502;10.252;2023-04-01T13:55:30;100068.59;;;7.79;100.00
16120;BME280;12670;53.502;10.252;2023-04-01T13:59:08;100078.66;;;7.91;100.00
16120;BME280;12670;53.502;10.252;2023-04-01T14:02:34;100075.38;;;7.86;100.00
16120;BME280;12670;53.502;10.252;2023-04-01T14:05:49;100084.22;;;7.63;100.00
16120;BME280;12670;53.502;10.252;2023-04-01T14:12:32;100090.66;;;7.56;100.00
16120;BME280;12670;53.502;10.252;2023-04-01T14:15:47;100098.56;;;7.56;100.00
16120;BME280;12670;53.502;10.252;2023-04-01T14:19:08;100101.53;;;7.70;100.00
16120;BME280;12670;53.502;10.252;2023-04-01T14:22:22;100111.53;;;7.62;100.00
16120;BME280;12670;53.502;10.252;2023-04-01T14:28:56;100122.25;;;7.35;100.00
16120;BME280;12670;53.502;10.252;2023-04-01T14:32:07;100128.63;;;7.30;100.00
16120;BME280;12670;53.502;10.252;2023-04-01T14:35:24;100136.53;;;7.30;100.00
16120;BME280;12670;53.502;10.252;2023-04-01T14:38:39;100121.81;;;7.01;100.00
16120;BME280;12670;53.502;10.252;2023-04-01T14:41:59;100137.22;;;7.35;100.00
16120;BME280;12670;53.502;10.252;2023-04-01T14:45:34;100137.69;;;7.22;100.00
16120;BME280;12670;53.502;10.252;2023-04-01T14:48:50;100149.25;;;7.42;100.00
16120;BME280;12670;53.502;10.252;2023-04-01T14:51:55;100153.84;;;7.37;100.00
16120;BME280;12670;53.502;10.252;2023-04-01T14:55:31;100162.38;;;7.20;100.00
16120;BME280;12670;53.502;10.252;2023-04-01T14:58:45;100158.91;;;7.19;100.00
16120;BME280;12670;53.502;10.252;2023-04-01T15:01:53;100168.41;;;7.47;100.00
16120;BME280;12670;53.502;10.252;2023-04-01T15:05:06;100170.03;;;7.04;100.00
16120;BME280;12670;53.502;10.252;2023-04-01T15:08:18;100194.16;;;6.68;100.00
16120;BME280;12670;53.502;10.252;2023-04-01T15:11:41;100179.06;;;6.72;100.00
16120;BME280;12670;53.502;10.252;2023-04-01T15:18:13;100197.03;;;7.11;100.00
16120;BME280;12670;53.502;10.252;2023-04-01T15:21:36;100199.84;;;7.06;100.00
16120;BME280;12670;53.502;10.252;2023-04-01T15:24:48;100207.59;;;7.11;100.00
16120;BME280;12670;53.502;10.252;2023-04-01T15:27:58;100211.47;;;7.01;100.00
16120;BME280;12670;53.502;10.252;2023-04-01T15:31:12;100219.09;;;7.08;100.00
16120;BME280;12670;53.502;10.252;2023-04-01T15:34:26;100231.31;;;6.86;100.00
16120;BME280;12670;53.502;10.252;2023-04-01T15:37:37;100249.59;;;6.92;100.00
16120;BME280;12670;53.502;10.252;2023-04-01T15:40:49;100234.78;;;6.61;100.00
16120;BME280;12670;53.502;10.252;2023-04-01T15:43:55;100242.47;;;6.69;100.00
16120;BME280;12670;53.502;10.252;2023-04-01T15:46:58;100254.88;;;6.92;100.00
16120;BME280;12670;53.502;10.252;2023-04-01T15:50:32;100255.38;;;6.77;100.00
16120;BME280;12670;53.502;10.252;2023-04-01T15:53:55;100248.16;;;6.55;100.00
16120;BME280;12670;53.502;10.252;2023-04-01T15:57:15;100261.16;;;6.61;100.00
16120;BME280;12670;53.502;10.252;2023-04-01T16:00:26;100279.38;;;6.67;100.00
16120;BME280;12670;53.502;10.252;2023-04-01T16:03:36;100277.66;;;6.66;100.00
16120;BME280;12670;53.502;10.252;2023-04-01T16:06:52;100281.50;;;6.56;100.00
16120;BME280;12670;53.502;10.252;2023-04-01T16:10:21;100290.06;;;6.64;100.00
16120;BME280;12670;53.502;10.252;2023-04-01T16:13:37;100311.81;;;6.43;100.00
16120;BME280;12670;53.502;10.252;2023-04-01T16:16:56;100302.25;;;6.40;100.00
16120;BME280;12670;53.502;10.252;2023-04-01T16:20:15;100300.84;;;6.57;100.00
16120;BME280;12670;53.502;10.252;2023-04-01T16:23:22;100313.53;;;6.44;100.00
16120;BME280;12670;53.502;10.252;2023-04-01T16:26:29;100325.38;;;6.59;100.00
16120;BME280;12670;53.502;10.252;2023-04-01T16:29:45;100325.81;;;6.45;100.00
16120;BME280;12670;53.502;10.252;2023-04-01T16:32:53;100326.34;;;6.28;100.00
16120;BME280;12670;53.502;10.252;2023-04-01T16:35:59;100334.28;;;6.27;100.00
16120;BME280;12670;53.502;10.252;2023-04-01T16:39:22;100345.66;;;6.57;100.00
16120;BME280;12670;53.502;10.252;2023-04-01T16:42:35;100344.63;;;6.33;100.00
16120;BME280;12670;53.502;10.252;2023-04-01T16:45:51;100365.69;;;6.33;100.00
16120;BME280;12670;53.502;10.252;2023-04-01T16:49:00;100367.25;;;6.40;100.00
16120;BME280;12670;53.502;10.252;2023-04-01T16:52:14;100373.41;;;6.68;100.00
16120;BME280;12670;53.502;10.252;2023-04-01T16:55:20;100386.72;;;6.92;100.00
16120;BME280;12670;53.502;10.252;2023-04-01T16:58:25;100391.13;;;6.63;100.00
16120;BME280;12670;53.502;10.252;2023-04-01T17:01:42;100395.03;;;6.21;100.00
16120;BME280;12670;53.502;10.252;2023-04-01T17:04:48;100404.72;;;6.78;100.00
16120;BME280;12670;53.502;10.252;2023-04-01T17:08:01;100410.94;;;6.18;100.00
16120;BME280;12670;53.502;10.252;2023-04-01T17:11:13;100414.22;;;6.55;100.00
16120;BME280;12670;53.502;10.252;2023-04-01T17:14:24;100418.69;;;6.24;100.00
16120;BME280;12670;53.502;10.252;2023-04-01T17:17:38;100426.44;;;5.97;100.00
16120;BME280;12670;53.502;10.252;2023-04-01T17:20:48;100438.88;;;5.92;100.00
16120;BME280;12670;53.502;10.252;2023-04-01T17:24:00;100441.66;;;6.19;100.00